sensor_id;sensor_type;location;lat;lon;timestamp;P1;durP1;ratioP1;P2;durP2;ratioP2
9526;SDS011;4802;51.494;6.770;2022-11-20T00:00:53;10.10;;;8.93;;
9526;SDS011;4802;51.494;6.770;2022-11-20T00:03:26;6.57;;;5.77;;
9526;SDS011;4802;51.494;6.770;2022-11-20T00:16:52;7.70;;;7.00;;
9526;SDS011;4802;51.494;6.770;2022-11-20T01:05:51;10.23;;;9.40;;
9526;SDS011;4802;51.494;6.770;2022-11-20T01:08:24;32.73;;;15.10;;
9526;SDS011;4802;51.494;6.770;2022-11-20T01:11:04;11.33;;;9.23;;
9526;SDS011;4802;51.494;6.770;2022-11-20T01:13:38;16.23;;;9.80;;
9526;SDS011;4802;51.494;6.770;2022-11-20T01:16:13;19.27;;;14.60;;
9526;SDS011;4802;51.494;6.770;2022-11-20T01:18:47;13.43;;;12.13;;
9526;SDS011;4802;51.494;6.770;2022-11-20T01:21:24;21.33;;;11.00;;
9526;SDS011;4802;51.494;6.770;2022-11-20T01:24:00;17.70;;;13.40;;
9526;SDS011;4802;51.494;6.770;2022-11-20T01:26:33;10.83;;;9.60;;
9526;SDS011;4802;51.494;6.770;2022-11-20T01:29:10;10.27;;;8.77;;
9526;SDS011;4802;51.494;6.770;2022-11-20T01:31:42;14.13;;;9.03;;
9526;SDS011;4802;51.494;6.770;2022-11-20T01:34:12;12.03;;;9.60;;
9526;SDS011;4802;51.494;6.770;2022-11-20T01:36:44;13.00;;;11.63;;
9526;SDS011;4802;51.494;6.770;2022-11-20T01:39:16;11.90;;;10.53;;
9526;SDS011;4802;51.494;6.770;2022-11-20T01:41:49;23.87;;;13.70;;
9526;SDS011;4802;51.494;6.770;2022-11-20T01:44:51;12.33;;;10.47;;
9526;SDS011;4802;51.494;6.770;2022-11-20T01:47:27;22.10;;;12.23;;
9526;SDS011;4802;51.494;6.770;2022-11-20T01:50:05;18.13;;;13.37;;
9526;SDS011;4802;51.494;6.770;2022-11-20T01:52:41;11.07;;;10.17;;
9526;SDS011;4802;51.494;6.770;2022-11-20T01:55:14;13.27;;;9.30;;
9526;SDS011;4802;51.494;6.770;2022-11-20T01:57:46;11.03;;;9.37;;
9526;SDS011;4802;51.494;6.770;2022-11-20T02:03:18;11.73;;;10.50;;
9526;SDS011;4802;51.494;6.770;2022-11-20T02:05:51;14.90;;;12.27;;
9526;SDS011;4802;51.494;6.770;2022-11-20T02:08:25;12.53;;;11.17;;
9526;SDS011;4802;51.494;6.770;2022-11-20T02:10:56;10.63;;;8.47;;
9526;SDS011;4802;51.494;6.770;2022-11-20T02:13:29;17.50;;;8.93;;
9526;SDS011;4802;51.494;6.770;2022-11-20T02:16:18;18.53;;;9.63;;
9526;SDS011;4802;51.494;6.770;2022-11-20T02:18:51;12.23;;;8.37;;
9526;SDS011;4802;51.494;6.770;2022-11-20T02:21:24;9.43;;;8.50;;
9526;SDS011;4802;51.494;6.770;2022-11-20T02:24:06;13.30;;;10.03;;
9526;SDS011;4802;51.494;6.770;2022-11-20T02:26:43;12.27;;;10.80;;
9526;SDS011;4802;51.494;6.770;2022-11-20T02:29:17;15.90;;;9.50;;
9526;SDS011;4802;51.494;6.770;2022-11-20T02:31:52;9.00;;;7.10;;
9526;SDS011;4802;51.494;6.770;2022-11-20T02:34:23;10.93;;;9.80;;
9526;SDS011;4802;51.494;6.770;2022-11-20T02:36:55;12.33;;;8.63;;
9526;SDS011;4802;51.494;6.770;2022-11-20T02:39:27;8.70;;;7.90;;
9526;SDS011;4802;51.494;6.770;2022-11-20T02:41:56;9.20;;;8.20;;
9526;SDS011;4802;51.494;6.770;2022-11-20T02:44:25;11.37;;;8.97;;
9526;SDS011;4802;51.494;6.770;2022-11-20T02:46:56;14.07;;;6.70;;
9526;SDS011;4802;51.494;6.770;2022-11-20T02:49:28;9.60;;;6.00;;
9526;SDS011;4802;51.494;6.770;2022-11-20T02:51:58;10.07;;;8.33;;
9526;SDS011;4802;51.494;6.770;2022-11-20T02:54:34;9.57;;;8.67;;
9526;SDS011;4802;51.494;6.770;2022-11-20T02:57:04;12.30;;;7.90;;
9526;SDS011;4802;51.494;6.770;2022-11-20T02:59:32;9.63;;;8.57;;
9526;SDS011;4802;51.494;6.770;2022-11-20T03:02:04;28.97;;;10.97;;
9526;SDS011;4802;51.494;6.770;2022-11-20T03:04:34;8.80;;;7.30;;
9526;SDS011;4802;51.494;6.770;2022-11-20T03:07:03;10.83;;;7.83;;
9526;SDS011;4802;51.494;6.770;2022-11-20T03:09:34;8.80;;;6.57;;
9526;SDS011;4802;51.494;6.770;2022-11-20T03:12:03;17.23;;;7.87;;
9526;SDS011;4802;51.494;6.770;2022-11-20T03:14:32;13.17;;;8.73;;
9526;SDS011;4802;51.494;6.770;2022-11-20T03:17:02;12.47;;;6.93;;
9526;SDS011;4802;51.494;6.770;2022-11-20T03:19:31;11.77;;;6.30;;
9526;SDS011;4802;51.494;6.770;2022-11-20T03:22:00;12.87;;;8.03;;
9526;SDS011;4802;51.494;6.770;2022-11-20T03:24:30;10.03;;;5.63;;
9526;SDS011;4802;51.494;6.770;2022-11-20T03:27:01;12.67;;;8.50;;
9526;SDS011;4802;51.494;6.770;2022-11-20T03:29:31;8.00;;;7.40;;
9526;SDS011;4802;51.494;6.770;2022-11-20T03:32:00;18.73;;;7.73;;
9526;SDS011;4802;51.494;6.770;2022-11-20T03:34:29;8.70;;;7.10;;
9526;SDS011;4802;51.494;6.770;2022-11-20T03:36:58;9.93;;;8.90;;
9526;SDS011;4802;51.494;6.770;2022-11-20T03:39:27;10.37;;;6.60;;
9526;SDS011;4802;51.494;6.770;2022-11-20T03:41:56;11.07;;;8.07;;
9526;SDS011;4802;51.494;6.770;2022-11-20T03:44:28;6.60;;;5.97;;
9526;SDS011;4802;51.494;6.770;2022-11-20T03:46:58;6.30;;;5.80;;
9526;SDS011;4802;51.494;6.770;2022-11-20T03:49:26;8.50;;;7.53;;
9526;SDS011;4802;51.494;6.770;2022-11-20T03:51:56;9.80;;;8.73;;
9526;SDS011;4802;51.494;6.770;2022-11-20T03:54:25;11.47;;;8.13;;
9526;SDS011;4802;51.494;6.770;2022-11-20T03:56:56;12.07;;;8.67;;
9526;SDS011;4802;51.494;6.770;2022-11-20T03:59:25;11.33;;;8.47;;
9526;SDS011;4802;51.494;6.770;2022-11-20T04:01:55;7.83;;;7.03;;
9526;SDS011;4802;51.494;6.770;2022-11-20T04:04:24;9.90;;;7.57;;
9526;SDS011;4802;51.494;6.770;2022-11-20T04:06:53;6.43;;;5.23;;
9526;SDS011;4802;51.494;6.770;2022-11-20T04:09:22;9.37;;;8.40;;
9526;SDS011;4802;51.494;6.770;2022-11-20T04:11:52;8.87;;;6.67;;
9526;SDS011;4802;51.494;6.770;2022-11-20T04:14:21;12.70;;;9.17;;
9526;SDS011;4802;51.494;6.770;2022-11-20T04:16:51;8.57;;;7.17;;
9526;SDS011;4802;51.494;6.770;2022-11-20T04:19:22;19.30;;;7.63;;
9526;SDS011;4802;51.494;6.770;2022-11-20T04:21:52;13.23;;;6.80;;
9526;SDS011;4802;51.494;6.770;2022-11-20T04:24:21;6.97;;;6.40;;
9526;SDS011;4802;51.494;6.770;2022-11-20T04:26:51;10.70;;;6.13;;
9526;SDS011;4802;51.494;6.770;2022-11-20T04:29:20;11.10;;;8.70;;
9526;SDS011;4802;51.494;6.770;2022-11-20T04:31:49;15.20;;;8.53;;
9526;SDS011;4802;51.494;6.770;2022-11-20T04:34:18;7.30;;;6.67;;
9526;SDS011;4802;51.494;6.770;2022-11-20T04:36:48;7.47;;;6.50;;
9526;SDS011;4802;51.494;6.770;2022-11-20T04:39:17;10.80;;;7.50;;
9526;SDS011;4802;51.494;6.770;2022-11-20T04:41:47;6.30;;;5.80;;
9526;SDS011;4802;51.494;6.770;2022-11-20T04:44:37;10.80;;;6.80;;
9526;SDS011;4802;51.494;6.770;2022-11-20T04:47:07;8.77;;;8.07;;
9526;SDS011;4802;51.494;6.770;2022-11-20T04:49:36;10.27;;;7.47;;
9526;SDS011;4802;51.494;6.770;2022-11-20T04:52:06;7.27;;;6.63;;
9526;SDS011;4802;51.494;6.770;2022-11-20T04:54:36;17.60;;;7.50;;
9526;SDS011;4802;51.494;6.770;2022-11-20T04:57:05;11.10;;;7.93;;
9526;SDS011;4802;51.494;6.770;2022-11-20T04:59:40;10.63;;;9.43;;
9526;SDS011;4802;51.494;6.770;2022-11-20T05:02:09;11.00;;;8.83;;
9526;SDS011;4802;51.494;6.770;2022-11-20T05:04:40;9.77;;;8.23;;
9526;SDS011;4802;51.494;6.770;2022-11-20T05:07:11;7.37;;;6.63;;
9526;SDS011;4802;51.494;6.770;2022-11-20T05:09:40;12.37;;;8.20;;
9526;SDS011;4802;51.494;6.770;2022-11-20T05:12:10;8.73;;;6.63;;
9526;SDS011;4802;51.494;6.770;2022-11-20T05:14:39;17.50;;;7.50;;
9526;SDS011;4802;51.494;6.770;2022-11-20T05:17:09;11.87;;;8.17;;
9526;SDS011;4802;51.494;6.770;2022-11-20T05:19:43;9.47;;;6.17;;
9526;SDS011;4802;51.494;6.770;2022-11-20T05:22:20;8.73;;;7.03;;
9526;SDS011;4802;51.494;6.770;2022-11-20T05:24:49;9.70;;;7.80;;
9526;SDS011;4802;51.494;6.770;2022-11-20T05:27:20;9.00;;;6.90;;
9526;SDS011;4802;51.494;6.770;2022-11-20T05:29:49;6.77;;;6.10;;
9526;SDS011;4802;51.494;6.770;2022-11-20T05:32:18;9.47;;;7.37;;
9526;SDS011;4802;51.494;6.770;2022-11-20T05:34:52;9.17;;;6.20;;
9526;SDS011;4802;51.494;6.770;2022-11-20T05:37:23;9.73;;;6.67;;
9526;SDS011;4802;51.494;6.770;2022-11-20T05:39:52;7.67;;;7.03;;
9526;SDS011;4802;51.494;6.770;2022-11-20T05:42:21;9.30;;;6.23;;
9526;SDS011;4802;51.494;6.770;2022-11-20T05:45:03;9.00;;;6.67;;
9526;SDS011;4802;51.494;6.770;2022-11-20T05:47:34;8.33;;;6.43;;
9526;SDS011;4802;51.494;6.770;2022-11-20T05:50:03;13.27;;;6.70;;
9526;SDS011;4802;51.494;6.770;2022-11-20T05:52:35;9.57;;;7.60;;
9526;SDS011;4802;51.494;6.770;2022-11-20T05:55:04;6.73;;;4.80;;
9526;SDS011;4802;51.494;6.770;2022-11-20T05:57:35;5.40;;;4.97;;
9526;SDS011;4802;51.494;6.770;2022-11-20T06:00:05;7.87;;;7.27;;
9526;SDS011;4802;51.494;6.770;2022-11-20T06:02:36;10.00;;;5.60;;
9526;SDS011;4802;51.494;6.770;2022-11-20T06:05:05;5.83;;;5.37;;
9526;SDS011;4802;51.494;6.770;2022-11-20T06:07:37;7.30;;;6.70;;
9526;SDS011;4802;51.494;6.770;2022-11-20T06:10:07;9.70;;;6.83;;
9526;SDS011;4802;51.494;6.770;2022-11-20T06:12:39;10.13;;;7.13;;
9526;SDS011;4802;51.494;6.770;2022-11-20T06:15:09;8.33;;;6.83;;
9526;SDS011;4802;51.494;6.770;2022-11-20T06:17:38;12.00;;;9.50;;
9526;SDS011;4802;51.494;6.770;2022-11-20T06:20:10;12.63;;;8.10;;
9526;SDS011;4802;51.494;6.770;2022-11-20T06:22:42;13.83;;;6.57;;
9526;SDS011;4802;51.494;6.770;2022-11-20T06:25:15;12.73;;;7.90;;
9526;SDS011;4802;51.494;6.770;2022-11-20T06:27:44;8.90;;;8.00;;
9526;SDS011;4802;51.494;6.770;2022-11-20T06:30:13;7.93;;;6.97;;
9526;SDS011;4802;51.494;6.770;2022-11-20T06:32:43;15.53;;;7.87;;
9526;SDS011;4802;51.494;6.770;2022-11-20T06:35:12;12.90;;;7.07;;
9526;SDS011;4802;51.494;6.770;2022-11-20T06:37:44;6.53;;;5.47;;
9526;SDS011;4802;51.494;6.770;2022-11-20T06:40:14;8.13;;;7.10;;
9526;SDS011;4802;51.494;6.770;2022-11-20T06:42:43;8.40;;;7.60;;
9526;SDS011;4802;51.494;6.770;2022-11-20T06:45:13;7.67;;;6.87;;
9526;SDS011;4802;51.494;6.770;2022-11-20T06:47:42;10.40;;;6.60;;
9526;SDS011;4802;51.494;6.770;2022-11-20T06:50:11;8.43;;;6.67;;
9526;SDS011;4802;51.494;6.770;2022-11-20T06:52:40;7.57;;;6.93;;
9526;SDS011;4802;51.494;6.770;2022-11-20T06:55:11;7.30;;;6.60;;
9526;SDS011;4802;51.494;6.770;2022-11-20T06:57:40;6.97;;;5.30;;
9526;SDS011;4802;51.494;6.770;2022-11-20T07:00:10;7.63;;;6.70;;
9526;SDS011;4802;51.494;6.770;2022-11-20T07:02:40;7.90;;;6.63;;
9526;SDS011;4802;51.494;6.770;2022-11-20T07:05:10;10.30;;;7.17;;
9526;SDS011;4802;51.494;6.770;2022-11-20T07:07:39;7.90;;;7.20;;
9526;SDS011;4802;51.494;6.770;2022-11-20T07:10:11;9.17;;;8.27;;
9526;SDS011;4802;51.494;6.770;2022-11-20T07:12:41;7.17;;;6.23;;
9526;SDS011;4802;51.494;6.770;2022-11-20T07:15:10;7.63;;;6.93;;
9526;SDS011;4802;51.494;6.770;2022-11-20T07:17:39;28.07;;;7.90;;
9526;SDS011;4802;51.494;6.770;2022-11-20T07:20:08;10.63;;;6.33;;
9526;SDS011;4802;51.494;6.770;2022-11-20T07:22:38;14.47;;;8.27;;
9526;SDS011;4802;51.494;6.770;2022-11-20T07:25:07;6.23;;;5.83;;
9526;SDS011;4802;51.494;6.770;2022-11-20T07:27:39;10.70;;;7.90;;
9526;SDS011;4802;51.494;6.770;2022-11-20T07:30:09;7.83;;;7.10;;
9526;SDS011;4802;51.494;6.770;2022-11-20T07:32:45;18.50;;;8.70;;
9526;SDS011;4802;51.494;6.770;2022-11-20T07:35:16;8.40;;;6.37;;
9526;SDS011;4802;51.494;6.770;2022-11-20T07:37:47;17.30;;;9.90;;
9526;SDS011;4802;51.494;6.770;2022-11-20T07:40:17;9.70;;;7.80;;
9526;SDS011;4802;51.494;6.770;2022-11-20T07:42:48;8.53;;;7.57;;
9526;SDS011;4802;51.494;6.770;2022-11-20T07:45:18;9.00;;;8.20;;
9526;SDS011;4802;51.494;6.770;2022-11-20T07:47:48;8.90;;;7.57;;
9526;SDS011;4802;51.494;6.770;2022-11-20T07:50:29;18.20;;;6.87;;
9526;SDS011;4802;51.494;6.770;2022-11-20T07:53:02;6.30;;;5.70;;
9526;SDS011;4802;51.494;6.770;2022-11-20T07:55:32;9.70;;;7.93;;
9526;SDS011;4802;51.494;6.770;2022-11-20T07:58:03;7.93;;;7.33;;
9526;SDS011;4802;51.494;6.770;2022-11-20T08:00:32;13.53;;;6.20;;
9526;SDS011;4802;51.494;6.770;2022-11-20T08:03:02;15.23;;;7.40;;
9526;SDS011;4802;51.494;6.770;2022-11-20T08:05:31;22.93;;;8.40;;
9526;SDS011;4802;51.494;6.770;2022-11-20T08:08:01;9.40;;;8.23;;
9526;SDS011;4802;51.494;6.770;2022-11-20T08:10:30;11.13;;;8.60;;
9526;SDS011;4802;51.494;6.770;2022-11-20T08:12:59;8.23;;;6.60;;
9526;SDS011;4802;51.494;6.770;2022-11-20T08:15:49;8.17;;;6.40;;
9526;SDS011;4802;51.494;6.770;2022-11-20T08:18:18;12.00;;;9.20;;
9526;SDS011;4802;51.494;6.770;2022-11-20T08:20:57;9.73;;;7.37;;
9526;SDS011;4802;51.494;6.770;2022-11-20T08:23:29;17.37;;;8.53;;
9526;SDS011;4802;51.494;6.770;2022-11-20T08:25:58;8.53;;;7.73;;
9526;SDS011;4802;51.494;6.770;2022-11-20T08:28:27;9.53;;;7.37;;
9526;SDS011;4802;51.494;6.770;2022-11-20T08:31:02;11.47;;;7.33;;
9526;SDS011;4802;51.494;6.770;2022-11-20T08:33:32;14.53;;;11.47;;
9526;SDS011;4802;51.494;6.770;2022-11-20T08:36:03;7.43;;;6.73;;
9526;SDS011;4802;51.494;6.770;2022-11-20T08:38:36;13.30;;;9.80;;
9526;SDS011;4802;51.494;6.770;2022-11-20T08:41:05;13.30;;;8.53;;
9526;SDS011;4802;51.494;6.770;2022-11-20T08:43:54;5.80;;;5.30;;
9526;SDS011;4802;51.494;6.770;2022-11-20T08:46:30;8.27;;;7.17;;
9526;SDS011;4802;51.494;6.770;2022-11-20T08:49:06;9.63;;;7.27;;
9526;SDS011;4802;51.494;6.770;2022-11-20T08:51:37;13.13;;;7.83;;
9526;SDS011;4802;51.494;6.770;2022-11-20T08:54:08;20.13;;;5.63;;
9526;SDS011;4802;51.494;6.770;2022-11-20T08:56:40;10.63;;;6.43;;
9526;SDS011;4802;51.494;6.770;2022-11-20T08:59:12;12.13;;;4.90;;
9526;SDS011;4802;51.494;6.770;2022-11-20T09:02:04;11.53;;;6.40;;
9526;SDS011;4802;51.494;6.770;2022-11-20T09:04:33;9.30;;;7.17;;
9526;SDS011;4802;51.494;6.770;2022-11-20T09:07:04;5.30;;;5.00;;
9526;SDS011;4802;51.494;6.770;2022-11-20T09:09:36;7.73;;;7.03;;
9526;SDS011;4802;51.494;6.770;2022-11-20T09:12:07;7.87;;;7.27;;
9526;SDS011;4802;51.494;6.770;2022-11-20T09:14:36;10.10;;;5.20;;
9526;SDS011;4802;51.494;6.770;2022-11-20T09:17:08;8.10;;;6.50;;
9526;SDS011;4802;51.494;6.770;2022-11-20T09:19:40;7.53;;;6.90;;
9526;SDS011;4802;51.494;6.770;2022-11-20T09:22:14;12.53;;;11.40;;
9526;SDS011;4802;51.494;6.770;2022-11-20T09:24:43;14.47;;;9.83;;
9526;SDS011;4802;51.494;6.770;2022-11-20T09:27:13;8.90;;;8.20;;
9526;SDS011;4802;51.494;6.770;2022-11-20T09:29:42;10.53;;;6.27;;
9526;SDS011;4802;51.494;6.770;2022-11-20T09:32:14;7.57;;;6.70;;
9526;SDS011;4802;51.494;6.770;2022-11-20T09:34:46;5.43;;;4.90;;
9526;SDS011;4802;51.494;6.770;2022-11-20T09:37:15;6.57;;;5.17;;
9526;SDS011;4802;51.494;6.770;2022-11-20T09:39:44;6.67;;;6.20;;
9526;SDS011;4802;51.494;6.770;2022-11-20T09:42:17;9.07;;;6.97;;
9526;SDS011;4802;51.494;6.770;2022-11-20T09:45:10;6.53;;;4.70;;
9526;SDS011;4802;51.494;6.770;2022-11-20T09:50:49;10.43;;;7.90;;
9526;SDS011;4802;51.494;6.770;2022-11-20T09:53:27;5.97;;;5.50;;
9526;SDS011;4802;51.494;6.770;2022-11-20T09:56:06;8.97;;;5.10;;
9526;SDS011;4802;51.494;6.770;2022-11-20T09:58:47;4.80;;;3.53;;
9526;SDS011;4802;51.494;6.770;2022-11-20T10:01:23;5.57;;;4.80;;
9526;SDS011;4802;51.494;6.770;2022-11-20T10:04:01;7.23;;;5.20;;
9526;SDS011;4802;51.494;6.770;2022-11-20T10:06:34;6.93;;;5.53;;
9526;SDS011;4802;51.494;6.770;2022-11-20T10:09:35;8.40;;;7.07;;
9526;SDS011;4802;51.494;6.770;2022-11-20T10:12:12;6.80;;;6.10;;
9526;SDS011;4802;51.494;6.770;2022-11-20T10:14:54;10.10;;;7.80;;
9526;SDS011;4802;51.494;6.770;2022-11-20T10:17:43;11.30;;;7.00;;
9526;SDS011;4802;51.494;6.770;2022-11-20T10:20:32;8.17;;;6.20;;
9526;SDS011;4802;51.494;6.770;2022-11-20T10:23:18;5.70;;;5.13;;
9526;SDS011;4802;51.494;6.770;2022-11-20T10:26:00;9.80;;;4.70;;
9526;SDS011;4802;51.494;6.770;2022-11-20T10:28:40;3.90;;;3.60;;
9526;SDS011;4802;51.494;6.770;2022-11-20T10:31:27;5.40;;;4.20;;
9526;SDS011;4802;51.494;6.770;2022-11-20T10:34:12;8.13;;;6.10;;
9526;SDS011;4802;51.494;6.770;2022-11-20T10:36:55;22.77;;;5.70;;
9526;SDS011;4802;51.494;6.770;2022-11-20T10:39:34;6.00;;;5.63;;
9526;SDS011;4802;51.494;6.770;2022-11-20T10:42:17;4.00;;;3.57;;
9526;SDS011;4802;51.494;6.770;2022-11-20T10:45:18;4.83;;;4.53;;
9526;SDS011;4802;51.494;6.770;2022-11-20T10:48:14;5.80;;;5.10;;
9526;SDS011;4802;51.494;6.770;2022-11-20T10:50:48;7.77;;;5.80;;
9526;SDS011;4802;51.494;6.770;2022-11-20T11:00:05;20.03;;;7.77;;
9526;SDS011;4802;51.494;6.770;2022-11-20T11:02:59;7.43;;;5.53;;
9526;SDS011;4802;51.494;6.770;2022-11-20T11:05:59;11.30;;;6.93;;
9526;SDS011;4802;51.494;6.770;2022-11-20T11:08:44;11.10;;;7.60;;
9526;SDS011;4802;51.494;6.770;2022-11-20T11:11:23;10.87;;;9.90;;
9526;SDS011;4802;51.494;6.770;2022-11-20T11:14:08;12.40;;;6.37;;
9526;SDS011;4802;51.494;6.770;2022-11-20T11:16:49;4.60;;;4.30;;
9526;SDS011;4802;51.494;6.770;2022-11-20T11:19:41;22.50;;;6.33;;
9526;SDS011;4802;51.494;6.770;2022-11-20T11:22:16;5.37;;;4.63;;
9526;SDS011;4802;51.494;6.770;2022-11-20T11:25:01;12.50;;;7.73;;
9526;SDS011;4802;51.494;6.770;2022-11-20T11:27:45;4.90;;;3.43;;
9526;SDS011;4802;51.494;6.770;2022-11-20T11:30:19;6.27;;;5.67;;
9526;SDS011;4802;51.494;6.770;2022-11-20T11:33:11;8.60;;;6.20;;
9526;SDS011;4802;51.494;6.770;2022-11-20T11:35:51;10.07;;;7.17;;
9526;SDS011;4802;51.494;6.770;2022-11-20T11:38:38;8.30;;;5.53;;
9526;SDS011;4802;51.494;6.770;2022-11-20T11:41:12;6.63;;;3.50;;
9526;SDS011;4802;51.494;6.770;2022-11-20T11:43:49;4.47;;;4.13;;
9526;SDS011;4802;51.494;6.770;2022-11-20T11:46:43;3.60;;;3.30;;
9526;SDS011;4802;51.494;6.770;2022-11-20T11:49:19;6.13;;;5.23;;
9526;SDS011;4802;51.494;6.770;2022-11-20T11:51:58;10.83;;;6.37;;
9526;SDS011;4802;51.494;6.770;2022-11-20T11:54:38;6.87;;;3.70;;
9526;SDS011;4802;51.494;6.770;2022-11-20T11:57:23;13.90;;;7.63;;
9526;SDS011;4802;51.494;6.770;2022-11-20T12:00:03;3.27;;;3.17;;
9526;SDS011;4802;51.494;6.770;2022-11-20T12:02:46;11.40;;;4.63;;
9526;SDS011;4802;51.494;6.770;2022-11-20T12:05:29;4.20;;;3.80;;
9526;SDS011;4802;51.494;6.770;2022-11-20T12:08:05;10.27;;;2.93;;
9526;SDS011;4802;51.494;6.770;2022-11-20T12:10:50;7.03;;;6.33;;
9526;SDS011;4802;51.494;6.770;2022-11-20T12:13:32;14.83;;;5.70;;
9526;SDS011;4802;51.494;6.770;2022-11-20T12:16:12;6.60;;;4.40;;
9526;SDS011;4802;51.494;6.770;2022-11-20T12:18:56;8.13;;;7.13;;
9526;SDS011;4802;51.494;6.770;2022-11-20T12:21:45;7.87;;;5.80;;
9526;SDS011;4802;51.494;6.770;2022-11-20T12:24:33;9.10;;;6.20;;
9526;SDS011;4802;51.494;6.770;2022-11-20T12:30:25;7.83;;;3.70;;
9526;SDS011;4802;51.494;6.770;2022-11-20T12:33:01;7.17;;;4.27;;
9526;SDS011;4802;51.494;6.770;2022-11-20T12:36:12;18.77;;;6.33;;
9526;SDS011;4802;51.494;6.770;2022-11-20T12:38:58;15.43;;;7.67;;
9526;SDS011;4802;51.494;6.770;2022-11-20T12:41:50;15.80;;;10.27;;
9526;SDS011;4802;51.494;6.770;2022-11-20T12:58:22;10.03;;;5.73;;
9526;SDS011;4802;51.494;6.770;2022-11-20T13:01:19;8.07;;;5.10;;
9526;SDS011;4802;51.494;6.770;2022-11-20T13:04:23;5.47;;;4.43;;
9526;SDS011;4802;51.494;6.770;2022-11-20T13:07:12;6.53;;;5.07;;
9526;SDS011;4802;51.494;6.770;2022-11-20T13:09:55;11.50;;;6.53;;
9526;SDS011;4802;51.494;6.770;2022-11-20T13:15:50;3.83;;;3.03;;
9526;SDS011;4802;51.494;6.770;2022-11-20T13:18:54;9.10;;;6.47;;
9526;SDS011;4802;51.494;6.770;2022-11-20T13:21:47;5.00;;;4.10;;
9526;SDS011;4802;51.494;6.770;2022-11-20T13:24:51;3.73;;;3.13;;
9526;SDS011;4802;51.494;6.770;2022-11-20T13:27:48;12.73;;;8.07;;
9526;SDS011;4802;51.494;6.770;2022-11-20T13:30:29;9.60;;;5.90;;
9526;SDS011;4802;51.494;6.770;2022-11-20T13:33:28;5.57;;;5.17;;
9526;SDS011;4802;51.494;6.770;2022-11-20T13:36:29;7.93;;;5.70;;
9526;SDS011;4802;51.494;6.770;2022-11-20T13:39:31;13.07;;;6.67;;
9526;SDS011;4802;51.494;6.770;2022-11-20T13:42:24;14.00;;;7.43;;
9526;SDS011;4802;51.494;6.770;2022-11-20T13:45:53;6.33;;;5.90;;
9526;SDS011;4802;51.494;6.770;2022-11-20T13:49:06;4.80;;;4.40;;
9526;SDS011;4802;51.494;6.770;2022-11-20T13:51:51;6.87;;;5.73;;
9526;SDS011;4802;51.494;6.770;2022-11-20T13:55:04;15.57;;;9.03;;
9526;SDS011;4802;51.494;6.770;2022-11-20T14:08:46;4.63;;;4.43;;
9526;SDS011;4802;51.494;6.770;2022-11-20T14:11:18;2.90;;;2.77;;
9526;SDS011;4802;51.494;6.770;2022-11-20T14:14:00;3.90;;;3.30;;
9526;SDS011;4802;51.494;6.770;2022-11-20T14:16:38;13.47;;;6.50;;
9526;SDS011;4802;51.494;6.770;2022-11-20T14:19:25;11.73;;;4.33;;
9526;SDS011;4802;51.494;6.770;2022-11-20T14:22:08;12.90;;;5.23;;
9526;SDS011;4802;51.494;6.770;2022-11-20T14:25:21;5.80;;;4.80;;
9526;SDS011;4802;51.494;6.770;2022-11-20T14:28:20;11.03;;;4.60;;
9526;SDS011;4802;51.494;6.770;2022-11-20T14:31:19;7.30;;;4.50;;
9526;SDS011;4802;51.494;6.770;2022-11-20T14:34:23;7.77;;;6.20;;
9526;SDS011;4802;51.494;6.770;2022-11-20T14:37:55;5.67;;;5.13;;
9526;SDS011;4802;51.494;6.770;2022-11-20T14:50:49;9.47;;;4.27;;
9526;SDS011;4802;51.494;6.770;2022-11-20T14:53:37;3.10;;;3.00;;
9526;SDS011;4802;51.494;6.770;2022-11-20T14:56:27;9.70;;;4.30;;
9526;SDS011;4802;51.494;6.770;2022-11-20T14:59:01;10.43;;;6.73;;
9526;SDS011;4802;51.494;6.770;2022-11-20T15:01:47;22.03;;;10.30;;
9526;SDS011;4802;51.494;6.770;2022-11-20T15:04:32;16.23;;;9.43;;
9526;SDS011;4802;51.494;6.770;2022-11-20T15:07:03;20.47;;;11.90;;
9526;SDS011;4802;51.494;6.770;2022-11-20T15:09:39;9.63;;;8.70;;
9526;SDS011;4802;51.494;6.770;2022-11-20T15:12:15;10.23;;;9.10;;
9526;SDS011;4802;51.494;6.770;2022-11-20T15:14:47;10.57;;;5.63;;
9526;SDS011;4802;51.494;6.770;2022-11-20T15:17:18;7.33;;;3.90;;
9526;SDS011;4802;51.494;6.770;2022-11-20T15:19:49;4.57;;;4.17;;
9526;SDS011;4802;51.494;6.770;2022-11-20T15:22:20;3.93;;;3.63;;
9526;SDS011;4802;51.494;6.770;2022-11-20T15:24:50;7.67;;;3.60;;
9526;SDS011;4802;51.494;6.770;2022-11-20T15:27:20;8.00;;;5.33;;
9526;SDS011;4802;51.494;6.770;2022-11-20T15:29:53;6.83;;;6.27;;
9526;SDS011;4802;51.494;6.770;2022-11-20T15:32:26;17.20;;;8.33;;
9526;SDS011;4802;51.494;6.770;2022-11-20T17:16:12;9.37;;;5.50;;
9526;SDS011;4802;51.494;6.770;2022-11-20T17:19:04;11.63;;;6.93;;
9526;SDS011;4802;51.494;6.770;2022-11-20T17:22:11;12.40;;;6.47;;
9526;SDS011;4802;51.494;6.770;2022-11-20T17:25:10;9.23;;;4.33;;
9526;SDS011;4802;51.494;6.770;2022-11-20T17:28:09;16.30;;;7.30;;
9526;SDS011;4802;51.494;6.770;2022-11-20T17:31:00;10.00;;;8.40;;
9526;SDS011;4802;51.494;6.770;2022-11-20T17:40:33;7.10;;;6.50;;
9526;SDS011;4802;51.494;6.770;2022-11-20T17:43:16;5.13;;;4.77;;
9526;SDS011;4802;51.494;6.770;2022-11-20T17:45:51;8.40;;;6.20;;
9526;SDS011;4802;51.494;6.770;2022-11-20T17:48:25;7.43;;;5.87;;
9526;SDS011;4802;51.494;6.770;2022-11-20T17:51:05;5.70;;;5.30;;
9526;SDS011;4802;51.494;6.770;2022-11-20T17:57:00;6.03;;;5.53;;
9526;SDS011;4802;51.494;6.770;2022-11-20T17:59:59;3.53;;;3.30;;
9526;SDS011;4802;51.494;6.770;2022-11-20T18:02:45;5.23;;;4.20;;
9526;SDS011;4802;51.494;6.770;2022-11-20T18:05:20;4.43;;;4.10;;
9526;SDS011;4802;51.494;6.770;2022-11-20T18:07:54;5.73;;;4.60;;
9526;SDS011;4802;51.494;6.770;2022-11-20T18:33:28;4.73;;;4.40;;
9526;SDS011;4802;51.494;6.770;2022-11-20T18:37:11;4.73;;;2.40;;
9526;SDS011;4802;51.494;6.770;2022-11-20T18:43:40;3.77;;;3.43;;
9526;SDS011;4802;51.494;6.770;2022-11-20T18:46:57;14.70;;;4.63;;
9526;SDS011;4802;51.494;6.770;2022-11-20T19:33:11;2.30;;;2.20;;
9526;SDS011;4802;51.494;6.770;2022-11-20T19:36:13;2.53;;;2.43;;
9526;SDS011;4802;51.494;6.770;2022-11-20T19:39:32;4.57;;;3.97;;
9526;SDS011;4802;51.494;6.770;2022-11-20T19:42:56;6.20;;;3.80;;
9526;SDS011;4802;51.494;6.770;2022-11-20T19:45:51;2.33;;;2.17;;
9526;SDS011;4802;51.494;6.770;2022-11-20T19:48:40;3.47;;;3.27;;
9526;SDS011;4802;51.494;6.770;2022-11-20T19:51:44;5.47;;;3.50;;
9526;SDS011;4802;51.494;6.770;2022-11-20T19:54:22;12.00;;;5.50;;
9526;SDS011;4802;51.494;6.770;2022-11-20T19:57:21;3.60;;;3.37;;
9526;SDS011;4802;51.494;6.770;2022-11-20T20:00:15;3.53;;;3.43;;
9526;SDS011;4802;51.494;6.770;2022-11-20T20:03:13;7.70;;;4.30;;
9526;SDS011;4802;51.494;6.770;2022-11-20T20:06:20;6.10;;;5.57;;
9526;SDS011;4802;51.494;6.770;2022-11-20T20:09:17;3.60;;;3.17;;
9526;SDS011;4802;51.494;6.770;2022-11-20T20:12:14;4.47;;;4.20;;
9526;SDS011;4802;51.494;6.770;2022-11-20T20:15:14;5.73;;;3.17;;
9526;SDS011;4802;51.494;6.770;2022-11-20T20:21:40;8.63;;;6.13;;
9526;SDS011;4802;51.494;6.770;2022-11-20T20:24:40;6.70;;;5.57;;
9526;SDS011;4802;51.494;6.770;2022-11-20T20:27:29;6.17;;;5.77;;
9526;SDS011;4802;51.494;6.770;2022-11-20T20:30:26;8.40;;;5.93;;
9526;SDS011;4802;51.494;6.770;2022-11-20T20:33:24;15.83;;;5.97;;
9526;SDS011;4802;51.494;6.770;2022-11-20T20:53:45;9.70;;;8.80;;
9526;SDS011;4802;51.494;6.770;2022-11-20T20:56:31;10.07;;;8.13;;
9526;SDS011;4802;51.494;6.770;2022-11-20T20:59:31;12.97;;;7.20;;
9526;SDS011;4802;51.494;6.770;2022-11-20T21:02:27;7.67;;;6.73;;
9526;SDS011;4802;51.494;6.770;2022-11-20T21:05:02;8.43;;;7.07;;
9526;SDS011;4802;51.494;6.770;2022-11-20T21:07:33;12.20;;;8.10;;
9526;SDS011;4802;51.494;6.770;2022-11-20T21:10:18;7.27;;;5.70;;
9526;SDS011;4802;51.494;6.770;2022-11-20T21:12:51;12.30;;;7.13;;
9526;SDS011;4802;51.494;6.770;2022-11-20T21:15:29;7.80;;;5.50;;
9526;SDS011;4802;51.494;6.770;2022-11-20T21:18:13;13.30;;;6.47;;
9526;SDS011;4802;51.494;6.770;2022-11-20T21:20:45;12.10;;;9.53;;
9526;SDS011;4802;51.494;6.770;2022-11-20T21:23:32;14.73;;;8.33;;
9526;SDS011;4802;51.494;6.770;2022-11-20T21:26:13;13.60;;;6.33;;
9526;SDS011;4802;51.494;6.770;2022-11-20T21:28:50;7.10;;;6.40;;
9526;SDS011;4802;51.494;6.770;2022-11-20T21:31:31;14.97;;;10.67;;